createdAt,value
2022-10-09T00:01:13.309Z,9.60
2022-10-09T00:03:59.636Z,7.10
2022-10-09T00:06:45.292Z,6.13
2022-10-09T00:09:31.123Z,6.65
2022-10-09T00:12:16.643Z,10.02
2022-10-09T00:15:02.238Z,9.23
2022-10-09T00:17:47.939Z,9.52
2022-10-09T00:20:39.824Z,11.52
2022-10-09T00:23:25.873Z,8.52
2022-10-09T00:26:12.100Z,7.78
2022-10-09T00:28:57.892Z,10.10
2022-10-09T00:31:43.139Z,9.20
2022-10-09T00:34:28.734Z,10.48
2022-10-09T00:37:14.396Z,9.43
2022-10-09T00:40:00.036Z,8.93
2022-10-09T00:42:45.891Z,8.80
2022-10-09T00:45:31.874Z,9.02
2022-10-09T00:48:18.708Z,8.35
2022-10-09T00:51:04.064Z,11.18
2022-10-09T00:53:50.183Z,7.75
2022-10-09T00:56:35.887Z,9.02
2022-10-09T00:59:22.591Z,7.53
2022-10-09T01:02:08.173Z,6.57
2022-10-09T01:04:53.652Z,9.55
2022-10-09T01:07:58.921Z,11.93
2022-10-09T01:11:04.253Z,7.60
2022-10-09T01:14:03.177Z,9.88
2022-10-09T01:17:07.709Z,9.68
2022-10-09T01:20:04.884Z,7.65
2022-10-09T01:23:07.991Z,7.63
2022-10-09T01:26:22.230Z,8.85
2022-10-09T01:29:10.232Z,9.13
2022-10-09T01:31:57.344Z,7.47
2022-10-09T01:34:44.461Z,6.05
2022-10-09T01:37:31.607Z,8.48
2022-10-09T01:40:18.078Z,6.68
2022-10-09T01:43:04.255Z,5.75
2022-10-09T01:45:49.875Z,6.63
2022-10-09T01:48:35.946Z,6.65
2022-10-09T01:51:27.668Z,9.25
2022-10-09T01:54:14.657Z,8.57
2022-10-09T01:57:03.522Z,9.60
2022-10-09T01:59:51.100Z,8.18
2022-10-09T02:02:37.359Z,7.38
2022-10-09T02:05:26.497Z,8.98
2022-10-09T02:08:17.607Z,7.68
2022-10-09T02:11:03.780Z,8.48
2022-10-09T02:13:52.986Z,10.88
2022-10-09T02:16:41.888Z,9.80
2022-10-09T02:19:38.807Z,12.73
2022-10-09T02:22:30.486Z,17.67
2022-10-09T02:25:18.392Z,11.80
2022-10-09T02:28:04.655Z,12.02
2022-10-09T02:31:03.579Z,10.20
2022-10-09T02:34:00.746Z,12.90
2022-10-09T02:36:47.513Z,10.93
2022-10-09T02:39:33.310Z,13.45
2022-10-09T02:42:18.410Z,9.68
2022-10-09T02:45:04.239Z,11.98
2022-10-09T02:47:50.097Z,8.07
2022-10-09T02:50:36.247Z,10.00
2022-10-09T02:53:21.926Z,13.63
2022-10-09T02:56:07.660Z,14.45
2022-10-09T02:58:53.736Z,13.38
2022-10-09T03:01:39.753Z,12.68
2022-10-09T03:04:25.078Z,13.00
2022-10-09T03:07:11.321Z,15.85
2022-10-09T03:09:58.280Z,16.73
2022-10-09T03:12:43.446Z,9.48
2022-10-09T03:15:29.154Z,6.78
2022-10-09T03:18:14.453Z,7.90
2022-10-09T03:21:00.272Z,6.82
2022-10-09T03:23:46.147Z,7.78
2022-10-09T03:26:31.433Z,7.00
2022-10-09T03:29:17.042Z,9.07
2022-10-09T03:32:02.546Z,10.23
2022-10-09T03:34:48.159Z,7.15
2022-10-09T03:37:33.869Z,9.95
2022-10-09T03:40:19.263Z,9.02
2022-10-09T03:43:05.019Z,9.90
2022-10-09T03:45:50.839Z,8.48
2022-10-09T03:48:36.755Z,9.38
2022-10-09T03:51:22.243Z,5.22
2022-10-09T03:54:07.845Z,4.78
2022-10-09T03:56:53.484Z,7.30
2022-10-09T03:59:39.184Z,4.13
2022-10-09T04:02:24.761Z,3.97
2022-10-09T04:05:10.243Z,5.85
2022-10-09T04:07:56.183Z,4.78
2022-10-09T04:10:41.753Z,3.70
2022-10-09T04:13:27.202Z,3.15
2022-10-09T04:16:12.877Z,4.00
2022-10-09T04:18:58.525Z,5.53
2022-10-09T04:21:43.818Z,4.68
2022-10-09T04:24:29.582Z,4.20
2022-10-09T04:27:14.998Z,5.38
2022-10-09T04:30:00.612Z,5.88
2022-10-09T04:32:48.186Z,4.15
2022-10-09T04:35:34.245Z,4.18
2022-10-09T04:38:21.111Z,3.83
2022-10-09T04:41:07.881Z,4.40
2022-10-09T04:43:56.755Z,4.25
2022-10-09T04:46:42.342Z,6.30
2022-10-09T04:49:27.983Z,5.75
2022-10-09T04:52:13.563Z,3.13
2022-10-09T04:54:59.358Z,3.70
2022-10-09T04:57:44.587Z,3.33
2022-10-09T05:00:30.122Z,3.50
2022-10-09T05:03:15.848Z,3.33
2022-10-09T05:06:06.737Z,2.60
2022-10-09T05:08:53.001Z,3.30
2022-10-09T05:11:42.508Z,3.78
2022-10-09T05:14:28.599Z,4.20
2022-10-09T05:17:15.092Z,3.58
2022-10-09T05:20:00.695Z,4.40
2022-10-09T05:22:47.758Z,4.50
2022-10-09T05:25:33.556Z,4.55
2022-10-09T05:28:19.425Z,4.57
2022-10-09T05:31:07.140Z,4.95
2022-10-09T05:33:52.961Z,3.67
2022-10-09T05:36:38.434Z,3.55
2022-10-09T05:39:24.110Z,4.65
2022-10-09T05:42:09.693Z,5.30
2022-10-09T05:44:55.618Z,4.00
2022-10-09T05:47:41.016Z,5.63
2022-10-09T05:50:26.788Z,2.97
2022-10-09T05:53:12.669Z,4.22
2022-10-09T05:56:01.590Z,2.42
2022-10-09T05:58:54.655Z,3.28
2022-10-09T06:01:42.460Z,3.70
2022-10-09T06:04:28.052Z,4.78
2022-10-09T06:07:13.388Z,4.32
2022-10-09T06:09:59.063Z,3.90
2022-10-09T06:12:44.742Z,4.50
2022-10-09T06:15:30.252Z,4.03
2022-10-09T06:18:15.539Z,4.15
2022-10-09T06:21:02.319Z,3.25
2022-10-09T06:23:55.742Z,3.40
2022-10-09T06:26:41.348Z,4.63
2022-10-09T06:29:27.080Z,4.00
2022-10-09T06:32:12.650Z,6.10
2022-10-09T06:34:58.017Z,3.47
2022-10-09T06:37:43.783Z,2.95
2022-10-09T06:40:29.161Z,3.33
2022-10-09T06:43:14.919Z,4.10
2022-10-09T06:46:05.355Z,3.42
2022-10-09T06:48:51.431Z,3.15
2022-10-09T06:51:38.336Z,3.50
2022-10-09T06:54:23.641Z,3.22
2022-10-09T06:57:09.416Z,3.13
2022-10-09T06:59:55.211Z,3.50
2022-10-09T07:02:44.179Z,3.25
2022-10-09T07:05:29.504Z,3.92
2022-10-09T07:08:15.223Z,3.70
2022-10-09T07:11:00.539Z,3.28
2022-10-09T07:13:46.047Z,4.38
2022-10-09T07:16:37.700Z,4.45
2022-10-09T07:19:23.035Z,4.85
2022-10-09T07:22:11.631Z,3.85
2022-10-09T07:24:57.384Z,4.45
2022-10-09T07:27:42.812Z,6.65
2022-10-09T07:30:30.090Z,6.30
2022-10-09T07:33:15.827Z,9.02
2022-10-09T07:36:04.086Z,7.68
2022-10-09T07:38:51.624Z,7.95
2022-10-09T07:41:37.529Z,10.73
2022-10-09T07:44:22.861Z,10.98
2022-10-09T07:47:08.640Z,7.55
2022-10-09T07:49:54.390Z,9.88
2022-10-09T07:52:40.182Z,11.82
2022-10-09T07:55:25.576Z,11.10
2022-10-09T07:58:11.236Z,9.07
2022-10-09T08:00:56.627Z,12.05
2022-10-09T08:03:42.365Z,10.05
2022-10-09T08:06:28.808Z,14.75
2022-10-09T08:09:14.499Z,11.13
2022-10-09T08:12:00.166Z,10.25
2022-10-09T08:14:48.974Z,12.27
2022-10-09T08:17:34.411Z,9.40
2022-10-09T08:20:20.297Z,13.38
2022-10-09T08:23:06.826Z,8.85
2022-10-09T08:25:52.556Z,10.45
2022-10-09T08:28:38.054Z,10.05
2022-10-09T08:31:24.405Z,10.00
2022-10-09T08:34:11.524Z,11.02
2022-10-09T08:36:57.031Z,7.72
2022-10-09T08:39:42.628Z,7.72
2022-10-09T08:42:37.807Z,9.57
2022-10-09T08:45:23.661Z,8.57
2022-10-09T08:48:16.044Z,7.20
2022-10-09T08:51:03.251Z,8.82
2022-10-09T08:54:03.384Z,7.25
2022-10-09T08:56:50.799Z,9.48
2022-10-09T08:59:36.596Z,6.93
2022-10-09T09:02:47.298Z,20.63
2022-10-09T09:05:48.630Z,7.95
2022-10-09T09:08:44.643Z,6.95
2022-10-09T09:11:46.322Z,7.15
2022-10-09T09:14:54.725Z,7.47
2022-10-09T09:18:00.522Z,6.93
2022-10-09T09:23:43.205Z,9.93
2022-10-09T09:26:29.215Z,6.32
2022-10-09T09:29:18.159Z,9.75
2022-10-09T09:32:04.554Z,3.97
2022-10-09T09:34:50.779Z,5.97
2022-10-09T09:37:37.630Z,5.22
2022-10-09T09:40:46.734Z,4.05
2022-10-09T09:43:32.690Z,5.00
2022-10-09T09:46:23.107Z,4.68
2022-10-09T09:49:21.069Z,4.20
2022-10-09T09:52:09.306Z,4.45
2022-10-09T09:54:57.430Z,5.72
2022-10-09T09:57:46.299Z,7.43
2022-10-09T10:00:32.666Z,5.72
2022-10-09T10:03:19.555Z,6.78
2022-10-09T10:06:05.229Z,6.05
2022-10-09T10:09:05.385Z,6.72
2022-10-09T10:11:59.914Z,5.85
2022-10-09T10:14:50.625Z,4.50
2022-10-09T10:17:37.365Z,3.58
2022-10-09T10:20:23.533Z,4.40
2022-10-09T10:23:32.138Z,7.05
2022-10-09T10:26:23.331Z,5.40
2022-10-09T10:29:37.611Z,6.05
2022-10-09T10:32:55.145Z,4.05
2022-10-09T10:35:43.506Z,4.63
2022-10-09T10:38:49.273Z,4.75
2022-10-09T10:41:43.048Z,3.05
2022-10-09T10:44:52.521Z,3.75
2022-10-09T10:47:43.786Z,5.18
2022-10-09T10:50:41.250Z,3.22
2022-10-09T10:53:41.326Z,4.28
2022-10-09T10:56:34.267Z,3.35
2022-10-09T10:59:22.848Z,3.30
2022-10-09T11:02:41.048Z,5.40
2022-10-09T11:05:36.462Z,5.80
2022-10-09T11:08:45.904Z,3.85
2022-10-09T11:11:45.321Z,5.57
2022-10-09T11:15:07.013Z,4.10
2022-10-09T11:18:10.515Z,4.50
2022-10-09T11:21:17.142Z,4.47
2022-10-09T11:24:17.314Z,4.00
2022-10-09T11:27:09.811Z,2.85
2022-10-09T11:30:05.801Z,1.65
2022-10-09T11:32:57.556Z,3.97
2022-10-09T11:35:51.127Z,4.25
2022-10-09T11:38:44.110Z,4.18
2022-10-09T11:41:31.194Z,2.63
2022-10-09T11:44:23.372Z,4.40
2022-10-09T11:47:33.812Z,3.70
2022-10-09T11:51:10.242Z,3.42
2022-10-09T11:57:05.163Z,2.83
2022-10-09T12:00:05.311Z,3.75
2022-10-09T12:02:59.608Z,3.28
2022-10-09T12:05:47.620Z,5.50
2022-10-09T12:08:33.226Z,3.67
2022-10-09T12:11:19.961Z,2.60
2022-10-09T12:14:08.256Z,3.15
2022-10-09T12:16:54.818Z,4.40
2022-10-09T12:19:42.156Z,3.60
2022-10-09T12:22:34.531Z,4.07
2022-10-09T12:25:38.750Z,2.90
2022-10-09T12:28:33.471Z,3.22
2022-10-09T12:31:26.553Z,2.83
2022-10-09T12:34:32.700Z,6.05
2022-10-09T12:37:20.724Z,3.90
2022-10-09T12:40:30.421Z,2.60
2022-10-09T12:43:18.365Z,5.10
2022-10-09T12:46:03.967Z,4.07
2022-10-09T12:48:49.495Z,2.70
2022-10-09T12:51:34.619Z,3.78
2022-10-09T12:54:20.548Z,3.72
2022-10-09T12:57:06.064Z,2.03
2022-10-09T12:59:52.150Z,4.20
2022-10-09T13:02:37.528Z,3.92
2022-10-09T13:05:22.897Z,2.22
2022-10-09T13:08:24.758Z,2.17
2022-10-09T13:11:24.815Z,4.40
2022-10-09T13:14:27.037Z,4.93
2022-10-09T13:17:29.710Z,4.78
2022-10-09T13:20:14.826Z,2.92
2022-10-09T13:23:04.206Z,3.92
2022-10-09T13:25:51.797Z,4.45
2022-10-09T13:28:37.258Z,4.57
2022-10-09T13:31:22.821Z,3.45
2022-10-09T13:34:13.464Z,3.45
2022-10-09T13:36:59.104Z,4.25
2022-10-09T13:39:44.702Z,4.55
2022-10-09T13:42:37.031Z,3.85
2022-10-09T13:45:22.943Z,3.75
2022-10-09T13:48:08.383Z,4.40
2022-10-09T13:50:54.255Z,2.45
2022-10-09T13:53:39.734Z,5.22
2022-10-09T13:56:26.153Z,4.22
2022-10-09T13:59:12.191Z,4.07
2022-10-09T14:01:58.185Z,3.65
2022-10-09T14:04:43.492Z,3.25
2022-10-09T14:07:29.069Z,2.63
2022-10-09T14:10:14.438Z,6.78
2022-10-09T14:12:59.912Z,3.90
2022-10-09T14:15:45.588Z,6.20
2022-10-09T14:18:30.964Z,4.13
2022-10-09T14:21:16.428Z,7.32
2022-10-09T14:24:03.522Z,4.93
2022-10-09T14:26:51.633Z,4.32
2022-10-09T14:29:38.412Z,3.92
2022-10-09T14:32:24.339Z,3.53
2022-10-09T14:35:10.464Z,4.22
2022-10-09T14:37:56.351Z,5.47
2022-10-09T14:40:43.588Z,5.25
2022-10-09T14:43:30.331Z,5.95
2022-10-09T14:46:17.863Z,4.22
2022-10-09T14:49:07.359Z,6.65
2022-10-09T14:51:54.975Z,3.78
2022-10-09T14:54:41.048Z,5.43
2022-10-09T14:57:28.387Z,7.88
2022-10-09T15:00:15.851Z,4.97
2022-10-09T15:03:01.283Z,3.45
2022-10-09T15:05:46.672Z,4.43
2022-10-09T15:08:33.911Z,6.00
2022-10-09T15:11:19.480Z,3.70
2022-10-09T15:14:05.195Z,4.47
2022-10-09T15:16:50.581Z,4.13
2022-10-09T15:19:36.117Z,5.57
2022-10-09T15:22:21.559Z,5.10
2022-10-09T15:25:08.289Z,6.60
2022-10-09T15:27:54.901Z,6.07
2022-10-09T15:30:50.453Z,3.38
2022-10-09T15:33:35.589Z,7.40
2022-10-09T15:36:22.172Z,4.30
2022-10-09T15:39:08.987Z,4.43
2022-10-09T15:41:54.602Z,3.83
2022-10-09T15:44:42.353Z,5.55
2022-10-09T15:47:50.014Z,7.53
2022-10-09T15:50:37.640Z,3.22
2022-10-09T15:53:24.480Z,6.93
2022-10-09T15:56:14.312Z,6.28
2022-10-09T15:58:59.997Z,5.32
2022-10-09T16:01:45.649Z,6.57
2022-10-09T16:04:31.119Z,3.95
2022-10-09T16:07:16.216Z,7.63
2022-10-09T16:10:01.646Z,6.28
2022-10-09T16:12:47.523Z,10.07
2022-10-09T16:15:33.273Z,7.85
2022-10-09T16:18:21.829Z,6.30
2022-10-09T16:21:09.454Z,4.60
2022-10-09T16:23:59.042Z,5.05
2022-10-09T16:26:45.095Z,4.10
2022-10-09T16:29:30.723Z,3.78
2022-10-09T16:32:16.395Z,6.35
2022-10-09T16:35:01.852Z,4.10
2022-10-09T16:37:47.456Z,5.45
2022-10-09T16:40:57.527Z,5.80
2022-10-09T16:49:20.071Z,5.68
2022-10-09T16:52:08.505Z,5.82
2022-10-09T16:54:58.253Z,5.03
2022-10-09T16:57:46.288Z,5.55
2022-10-09T17:00:31.927Z,5.15
2022-10-09T17:03:17.664Z,3.80
2022-10-09T17:06:19.747Z,8.30
2022-10-09T17:09:13.693Z,5.45
2022-10-09T17:11:59.559Z,6.40
2022-10-09T17:14:46.284Z,7.85
2022-10-09T17:17:31.785Z,5.82
2022-10-09T17:20:17.232Z,9.38
2022-10-09T17:23:03.237Z,11.35
2022-10-09T17:25:48.895Z,7.80
2022-10-09T17:28:34.802Z,5.57
2022-10-09T17:31:23.399Z,6.20
2022-10-09T17:34:08.929Z,5.97
2022-10-09T17:36:54.601Z,4.43
2022-10-09T17:39:42.174Z,7.45
2022-10-09T17:42:29.148Z,6.28
2022-10-09T17:45:14.438Z,6.43
2022-10-09T17:47:59.965Z,6.65
2022-10-09T17:50:56.951Z,4.25
2022-10-09T17:53:42.306Z,5.35
2022-10-09T17:56:28.706Z,6.63
2022-10-09T17:59:15.681Z,7.85
2022-10-09T18:02:01.415Z,8.13
2022-10-09T18:04:46.840Z,8.20
2022-10-09T18:07:32.439Z,5.90
2022-10-09T18:10:17.885Z,8.40
2022-10-09T18:13:04.631Z,4.03
2022-10-09T18:15:50.185Z,6.15
2022-10-09T18:18:36.229Z,4.35
2022-10-09T18:21:21.679Z,5.45
2022-10-09T18:24:07.224Z,6.30
2022-10-09T18:26:52.876Z,8.10
2022-10-09T18:29:38.081Z,5.60
2022-10-09T18:32:23.708Z,5.47
2022-10-09T18:35:09.426Z,8.07
2022-10-09T18:37:54.666Z,5.50
2022-10-09T18:40:45.594Z,9.48
2022-10-09T18:43:32.307Z,6.88
2022-10-09T18:46:20.946Z,5.55
2022-10-09T18:49:11.837Z,5.28
2022-10-09T18:51:58.928Z,7.15
2022-10-09T18:54:47.651Z,6.93
2022-10-09T18:57:34.326Z,4.57
2022-10-09T19:00:19.865Z,6.65
2022-10-09T19:03:05.587Z,5.97
2022-10-09T19:05:50.979Z,6.47
2022-10-09T19:08:37.011Z,4.65
2022-10-09T19:11:22.533Z,6.10
2022-10-09T19:14:08.062Z,7.32
2022-10-09T19:16:54.017Z,7.75
2022-10-09T19:19:40.037Z,8.40
2022-10-09T19:22:25.307Z,6.22
2022-10-09T19:25:11.224Z,5.45
2022-10-09T19:27:56.589Z,5.60
2022-10-09T19:30:43.122Z,5.95
2022-10-09T19:33:28.924Z,9.05
2022-10-09T19:36:14.566Z,7.35
2022-10-09T19:39:01.132Z,5.95
2022-10-09T19:41:48.724Z,8.20
2022-10-09T19:44:34.043Z,5.85
2022-10-09T19:47:21.501Z,6.13
2022-10-09T19:50:07.112Z,5.93
2022-10-09T19:52:52.380Z,8.23
2022-10-09T19:55:39.363Z,8.30
2022-10-09T19:58:24.649Z,5.22
2022-10-09T20:01:11.794Z,6.28
2022-10-09T20:04:00.099Z,8.63
2022-10-09T20:06:47.388Z,8.05
2022-10-09T20:09:32.801Z,8.27
2022-10-09T20:12:19.338Z,8.85
2022-10-09T20:15:05.140Z,5.97
2022-10-09T20:17:50.590Z,8.77
2022-10-09T20:20:36.429Z,5.65
2022-10-09T20:23:21.733Z,6.20
2022-10-09T20:26:09.752Z,6.88
2022-10-09T20:28:55.487Z,8.05
2022-10-09T20:31:41.810Z,5.97
2022-10-09T20:34:27.874Z,7.68
2022-10-09T20:37:13.555Z,7.80
2022-10-09T20:39:58.966Z,6.25
2022-10-09T20:42:44.643Z,9.65
2022-10-09T20:45:30.252Z,7.82
2022-10-09T20:48:15.737Z,8.40
2022-10-09T20:51:01.845Z,6.70
2022-10-09T20:53:56.196Z,7.40
2022-10-09T20:56:41.752Z,10.18
2022-10-09T20:59:27.176Z,7.40
2022-10-09T21:02:15.848Z,5.78
2022-10-09T21:05:01.034Z,8.68
2022-10-09T21:07:46.664Z,5.72
2022-10-09T21:10:32.579Z,7.22
2022-10-09T21:13:18.288Z,8.13
2022-10-09T21:16:10.083Z,7.00
2022-10-09T21:19:01.276Z,7.47
2022-10-09T21:21:50.841Z,7.25
2022-10-09T21:24:37.304Z,6.70
2022-10-09T21:27:22.804Z,7.60
2022-10-09T21:30:09.151Z,8.52
2022-10-09T21:32:56.018Z,7.50
2022-10-09T21:35:44.200Z,8.52
2022-10-09T21:38:30.270Z,8.40
2022-10-09T21:41:15.724Z,7.18
2022-10-09T21:44:01.440Z,8.70
2022-10-09T21:46:46.684Z,7.60
2022-10-09T21:49:32.519Z,6.75
2022-10-09T21:52:18.013Z,6.85
2022-10-09T21:55:03.788Z,7.80
2022-10-09T21:57:49.763Z,7.07
2022-10-09T22:00:35.708Z,6.80
2022-10-09T22:03:21.268Z,8.45
2022-10-09T22:06:19.102Z,10.77
2022-10-09T22:09:04.782Z,7.25
2022-10-09T22:11:50.284Z,7.93
2022-10-09T22:14:35.804Z,7.65
2022-10-09T22:17:21.533Z,7.70
2022-10-09T22:20:07.090Z,7.65
2022-10-09T22:22:52.968Z,8.48
2022-10-09T22:25:39.093Z,8.73
2022-10-09T22:28:24.614Z,9.35
2022-10-09T22:31:19.279Z,6.30
2022-10-09T22:34:04.915Z,8.88
2022-10-09T22:36:50.521Z,7.85
2022-10-09T22:39:36.210Z,10.55
2022-10-09T22:42:21.847Z,6.72
2022-10-09T22:45:07.765Z,8.02
2022-10-09T22:47:52.789Z,7.53
2022-10-09T22:50:38.297Z,7.57
2022-10-09T22:53:23.771Z,7.82
2022-10-09T22:56:15.948Z,8.60
2022-10-09T22:59:01.928Z,9.60
2022-10-09T23:01:54.286Z,8.27
2022-10-09T23:04:39.880Z,10.82
2022-10-09T23:07:25.308Z,9.85
2022-10-09T23:10:10.875Z,8.75
2022-10-09T23:12:56.304Z,7.80
2022-10-09T23:15:41.884Z,8.77
2022-10-09T23:18:27.882Z,8.50
2022-10-09T23:21:16.197Z,8.55
2022-10-09T23:24:01.957Z,11.07
2022-10-09T23:26:50.947Z,10.07
2022-10-09T23:29:36.422Z,8.88
2022-10-09T23:32:22.330Z,7.55
2022-10-09T23:35:08.413Z,7.50
2022-10-09T23:37:54.459Z,6.72
2022-10-09T23:40:39.693Z,10.35
2022-10-09T23:43:26.282Z,10.90
2022-10-09T23:46:14.909Z,7.45
2022-10-09T23:49:01.296Z,7.35
2022-10-09T23:51:47.760Z,7.75
2022-10-09T23:54:33.029Z,12.60
2022-10-09T23:57:19.077Z,13.18
